Time;durP1;ratioP1;P1;durP2;ratioP2;P2;SDS_P1;SDS_P2;PMS_P1;PMS_P2;Temp;Humidity;BMP_temperature;BMP_pressure;BME280_temperature;BME280_humidity;BME280_pressure;Samples;Min_cycle;Max_cycle;Signal;HPM_P1;HPM_P2
2022/03/11 00:01:52;;;;;;;12.48;6.68;;;;;;;6.90;49.03;101844.44;5037781;28;20029;-56
2022/03/11 00:04:17;;;;;;;12.05;7.03;;;;;;;6.77;49.40;101844.47;5038353;28;20021;-55
2022/03/11 00:06:42;;;;;;;9.80;6.63;;;;;;;6.66;49.68;101841.00;5042349;28;20195;-55
2022/03/11 00:09:08;;;;;;;12.73;6.57;;;;;;;6.57;50.17;101841.88;5045825;28;20082;-59
2022/03/11 00:11:33;;;;;;;12.20;6.88;;;;;;;6.50;50.63;101841.00;5044489;28;20075;-55
2022/03/11 00:13:59;;;;;;;10.70;7.00;;;;;;;6.40;50.81;101836.63;5031722;28;20021;-56
2022/03/11 00:16:24;;;;;;;13.63;6.78;;;;;;;6.35;51.09;101836.63;5026743;28;20033;-57
2022/03/11 00:18:50;;;;;;;13.10;7.90;;;;;;;6.24;51.42;101839.28;5042820;28;20116;-55
2022/03/11 00:21:15;;;;;;;14.35;7.47;;;;;;;6.19;51.52;101834.03;5046713;28;20116;-56
2022/03/11 00:23:42;;;;;;;16.42;7.15;;;;;;;6.13;52.04;101825.28;5038602;28;20037;-55
2022/03/11 00:26:07;;;;;;;17.33;9.30;;;;;;;6.10;52.23;101826.16;5037433;28;20037;-58
2022/03/11 00:28:33;;;;;;;11.85;7.60;;;;;;;6.04;52.21;101827.03;5047725;28;20139;-58
2022/03/11 00:30:58;;;;;;;13.98;7.13;;;;;;;6.00;52.13;101821.75;5047457;28;20024;-56
2022/03/11 00:33:24;;;;;;;11.80;7.72;;;;;;;5.99;52.24;101827.88;5032895;28;20067;-56
2022/03/11 00:35:49;;;;;;;13.10;7.40;;;;;;;5.97;52.84;101825.25;5030570;28;20315;-57
2022/03/11 00:38:14;;;;;;;13.52;8.02;;;;;;;5.92;52.46;101824.38;5044664;28;20049;-55
2022/03/11 00:40:40;;;;;;;15.02;8.05;;;;;;;5.93;52.60;101818.28;5041406;28;20124;-66
2022/03/11 00:43:05;;;;;;;12.43;7.28;;;;;;;5.90;52.51;101819.13;5025508;28;20508;-54
2022/03/11 00:45:31;;;;;;;12.30;6.95;;;;;;;5.88;52.53;101815.66;5039478;28;20037;-57
2022/03/11 00:47:56;;;;;;;12.27;7.03;;;;;;;5.87;52.37;101811.28;5026133;28;20025;-56
2022/03/11 00:50:22;;;;;;;15.02;7.70;;;;;;;5.91;52.22;101809.56;5025730;28;20056;-56
2022/03/11 00:52:48;;;;;;;14.13;7.95;;;;;;;5.93;51.90;101813.06;5027016;28;20104;-57
2022/03/11 00:55:13;;;;;;;13.45;7.70;;;;;;;6.00;51.60;101800.84;5026315;28;20013;-56
2022/03/11 00:57:38;;;;;;;14.23;7.97;;;;;;;6.05;51.32;101800.00;5025899;28;20057;-56
2022/03/11 01:00:05;;;;;;;14.75;7.28;;;;;;;6.15;50.94;101802.63;5026163;28;20028;-55
2022/03/11 01:02:41;;;;;;;12.55;7.30;;;;;;;6.15;51.16;101800.88;5025342;28;20108;-55
2022/03/11 01:05:07;;;;;;;12.65;7.40;;;;;;;6.11;51.38;101793.88;5025813;28;20424;-57
2022/03/11 01:07:34;;;;;;;16.05;8.32;;;;;;;6.18;50.88;101794.78;5026755;28;20025;-55
2022/03/11 01:09:59;;;;;;;13.57;7.60;;;;;;;6.24;50.69;101789.53;5025826;28;20038;-55
2022/03/11 01:12:25;;;;;;;19.25;7.90;;;;;;;6.25;50.45;101782.53;5025637;28;20091;-51
2022/03/11 01:14:50;;;;;;;14.25;7.40;;;;;;;6.22;50.50;101783.44;5026117;28;20025;-57
2022/03/11 01:17:16;;;;;;;13.00;7.72;;;;;;;6.23;50.62;101776.44;5025244;28;20090;-54
2022/03/11 01:19:41;;;;;;;11.00;6.57;;;;;;;6.21;50.88;101775.56;5025056;28;20029;-52
2022/03/11 01:22:07;;;;;;;12.27;7.70;;;;;;;6.18;50.58;101771.22;5024815;28;20044;-55
2022/03/11 01:24:32;;;;;;;15.75;8.13;;;;;;;6.16;50.71;101765.97;5024616;28;20036;-52
2022/03/11 01:26:58;;;;;;;11.70;7.72;;;;;;;6.18;50.84;101765.97;5026461;28;20324;-53
2022/03/11 01:29:24;;;;;;;15.43;7.28;;;;;;;6.20;50.57;101761.59;5025536;28;20029;-54
2022/03/11 01:31:53;;;;;;;11.90;7.50;;;;;;;6.24;50.58;101759.88;5027320;28;20025;-53
2022/03/11 01:34:19;;;;;;;12.98;7.07;;;;;;;6.25;50.37;101757.25;5025386;28;20013;-55
2022/03/11 01:36:45;;;;;;;13.52;8.07;;;;;;;6.17;50.70;101749.41;5024881;28;20115;-56
2022/03/11 01:39:10;;;;;;;19.15;7.78;;;;;;;6.19;50.27;101750.28;5024909;28;20149;-57
2022/03/11 01:41:35;;;;;;;19.05;7.57;;;;;;;6.25;50.15;101745.91;5025294;28;20121;-56
2022/03/11 01:44:04;;;;;;;16.23;6.93;;;;;;;6.22;50.29;101741.53;5025860;28;20033;-54
2022/03/11 01:46:30;;;;;;;14.88;8.10;;;;;;;6.16;50.41;101737.19;5024820;28;20033;-55
2022/03/11 01:48:56;;;;;;;16.85;8.68;;;;;;;6.11;50.60;101740.69;5025111;28;20147;-58
2022/03/11 01:51:21;;;;;;;14.07;8.50;;;;;;;6.04;51.05;101738.06;5025454;28;20033;-55
2022/03/11 01:53:47;;;;;;;14.10;7.63;;;;;;;5.94;51.25;101731.06;5025836;28;20017;-57
2022/03/11 01:56:13;;;;;;;12.45;7.53;;;;;;;5.85;51.56;101731.06;5047107;28;20379;-54
2022/03/11 01:58:39;;;;;;;11.75;7.65;;;;;;;5.76;51.50;101732.81;5045163;28;20021;-57
2022/03/11 02:01:04;;;;;;;13.70;8.43;;;;;;;5.67;52.11;101723.22;5045155;28;20032;-56
2022/03/11 02:03:30;;;;;;;16.63;7.93;;;;;;;5.60;52.25;101716.22;5053454;22;20053;-56
2022/03/11 02:05:55;;;;;;;14.68;8.27;;;;;;;5.54;52.82;101717.09;5014252;28;20587;-55
2022/03/11 02:08:20;;;;;;;12.95;8.07;;;;;;;5.50;52.63;101717.06;5046121;28;20028;-56
2022/03/11 02:10:46;;;;;;;14.70;8.38;;;;;;;5.41;52.91;101715.31;5044242;28;20115;-61
2022/03/11 02:13:11;;;;;;;12.05;6.80;;;;;;;5.34;53.23;101708.34;5043901;28;20108;-57
2022/03/11 02:15:36;;;;;;;16.58;9.00;;;;;;;5.29;53.69;101710.94;5043501;28;20017;-56
2022/03/11 02:18:02;;;;;;;12.90;7.97;;;;;;;5.27;53.86;101715.31;5046002;28;20356;-57
2022/03/11 02:20:28;;;;;;;13.02;7.82;;;;;;;5.23;54.01;101703.97;5044176;28;20025;-55
2022/03/11 02:22:55;;;;;;;14.68;7.88;;;;;;;5.25;53.49;101707.47;5045189;28;20021;-55
2022/03/11 02:25:20;;;;;;;15.13;7.90;;;;;;;5.21;53.58;101705.69;5027359;28;20021;-57
2022/03/11 02:27:46;;;;;;;16.88;9.10;;;;;;;5.16;53.87;101692.66;5044612;28;20482;-55
2022/03/11 02:30:20;;;;;;;16.55;8.30;;;;;;;5.15;54.01;101690.88;5045615;28;20060;-57
2022/03/11 02:32:45;;;;;;;15.45;7.93;;;;;;;5.16;53.60;101689.16;5045288;28;20400;-57
2022/03/11 02:35:11;;;;;;;14.50;8.30;;;;;;;5.12;53.60;101671.72;5043970;28;20071;-55
2022/03/11 02:37:37;;;;;;;15.10;7.68;;;;;;;5.09;53.49;101675.19;5027414;28;20045;-57
2022/03/11 02:40:04;;;;;;;13.98;8.05;;;;;;;5.05;53.71;101676.94;5036874;28;20108;-56
2022/03/11 02:42:29;;;;;;;15.00;8.63;;;;;;;5.03;53.96;101675.19;5044434;28;20093;-52
2022/03/11 02:44:54;;;;;;;13.55;7.93;;;;;;;4.98;54.26;101675.16;5045211;28;20025;-56
2022/03/11 02:47:20;;;;;;;18.23;8.25;;;;;;;4.97;53.91;101672.56;5045028;28;20037;-58
2022/03/11 02:49:45;;;;;;;15.43;8.90;;;;;;;5.02;53.71;101666.47;5043880;28;20037;-55
2022/03/11 02:52:10;;;;;;;13.77;8.10;;;;;;;5.05;53.54;101676.03;5044988;28;20021;-54
2022/03/11 02:54:36;;;;;;;16.13;8.15;;;;;;;5.07;53.62;101674.31;5045150;28;20021;-54
2022/03/11 02:57:02;;;;;;;13.52;8.60;;;;;;;5.08;53.75;101667.38;5045124;28;20025;-56
2022/03/11 02:59:27;;;;;;;13.38;7.85;;;;;;;5.04;53.41;101664.75;5044228;28;20029;-55
2022/03/11 03:01:52;;;;;;;16.60;8.45;;;;;;;5.03;53.83;101669.97;5042450;28;20491;-56
2022/03/11 03:04:18;;;;;;;13.02;7.68;;;;;;;4.99;53.89;101663.84;5043437;28;20415;-56
2022/03/11 03:06:43;;;;;;;12.65;8.13;;;;;;;4.93;54.11;101666.44;5045063;28;20116;-58
2022/03/11 03:09:09;;;;;;;11.93;7.43;;;;;;;4.89;54.03;101665.56;5038021;28;20037;-56
2022/03/11 03:11:34;;;;;;;15.63;8.60;;;;;;;4.89;54.11;101656.84;5044929;28;20040;-55
2022/03/11 03:13:59;;;;;;;13.27;8.75;;;;;;;4.93;53.94;101656.00;5044877;28;20025;-56
2022/03/11 03:16:25;;;;;;;14.95;8.13;;;;;;;4.93;53.96;101653.38;5044443;28;20116;-56
2022/03/11 03:18:50;;;;;;;15.88;8.60;;;;;;;4.93;54.07;101645.53;5044203;28;20033;-56
2022/03/11 03:21:15;;;;;;;17.42;8.10;;;;;;;4.93;53.50;101645.53;5044294;28;20116;-56
2022/03/11 03:23:41;;;;;;;15.40;7.90;;;;;;;4.95;53.50;101650.78;5044644;28;20021;-55
2022/03/11 03:26:06;;;;;;;13.55;7.60;;;;;;;4.95;53.81;101646.44;5044665;28;20022;-61
2022/03/11 03:28:31;;;;;;;12.52;8.30;;;;;;;4.93;53.48;101646.41;5044560;28;20041;-56
2022/03/11 03:30:57;;;;;;;15.10;8.45;;;;;;;4.96;53.64;101634.25;5044613;28;20029;-55
2022/03/11 03:33:22;;;;;;;16.45;9.07;;;;;;;4.92;53.52;101644.69;5026057;28;20089;-57
2022/03/11 03:35:47;;;;;;;13.93;8.27;;;;;;;4.91;53.58;101648.16;5044313;28;20108;-55
2022/03/11 03:38:13;;;;;;;12.65;8.30;;;;;;;4.92;53.61;101643.81;5044408;28;20029;-55
2022/03/11 03:40:38;;;;;;;13.52;8.00;;;;;;;4.93;53.12;101645.53;5044690;28;20049;-55
2022/03/11 03:43:04;;;;;;;15.50;8.55;;;;;;;4.91;53.71;101648.16;5044440;28;20025;-56
2022/03/11 03:45:31;;;;;;;13.55;7.38;;;;;;;4.91;53.49;101639.47;5042267;28;20057;-56
2022/03/11 03:47:56;;;;;;;12.50;7.95;;;;;;;4.93;53.55;101632.47;5045226;28;20079;-54
2022/03/11 03:50:21;;;;;;;19.98;8.68;;;;;;;4.87;53.80;101635.06;5047623;28;20032;-55
2022/03/11 03:52:47;;;;;;;13.73;8.57;;;;;;;4.79;54.07;101638.53;5048145;28;20025;-56
2022/03/11 03:55:12;;;;;;;16.30;8.10;;;;;;;4.77;54.17;101635.06;5029984;28;20025;-56
2022/03/11 03:57:38;;;;;;;13.23;8.57;;;;;;;4.74;54.23;101642.88;5047496;28;20036;-56
2022/03/11 04:00:05;;;;;;;21.42;8.73;;;;;;;4.72;54.34;101633.31;5048576;28;20036;-54
2022/03/11 04:02:32;;;;;;;15.57;8.73;;;;;;;4.70;54.21;101632.44;5047705;28;20399;-56
2022/03/11 04:04:58;;;;;;;15.52;8.75;;;;;;;4.68;54.29;101627.19;5046819;28;20028;-54
2022/03/11 04:07:23;;;;;;;16.20;8.80;;;;;;;4.57;54.94;101623.69;5047482;28;20032;-54
2022/03/11 04:09:48;;;;;;;13.75;8.55;;;;;;;4.50;54.66;101631.47;5047912;28;20033;-54
2022/03/11 04:12:13;;;;;;;14.90;8.52;;;;;;;4.46;55.16;101623.63;5044488;28;20037;-55
2022/03/11 04:14:39;;;;;;;22.70;8.35;;;;;;;4.48;55.40;101622.75;5047051;28;20356;-54
2022/03/11 04:17:04;;;;;;;13.60;7.65;;;;;;;4.48;55.11;101620.16;5048149;28;20379;-59
2022/03/11 04:19:30;;;;;;;19.92;8.55;;;;;;;4.40;55.57;101614.03;5046254;28;20029;-53
2022/03/11 04:21:55;;;;;;;15.50;8.43;;;;;;;4.38;55.73;101605.31;5047554;28;20021;-55
2022/03/11 04:24:21;;;;;;;13.23;7.95;;;;;;;4.36;55.82;101607.06;5047423;28;20025;-57
2022/03/11 04:26:46;;;;;;;15.68;8.23;;;;;;;4.33;55.97;101604.44;5046932;28;20036;-54
2022/03/11 04:29:12;;;;;;;14.95;7.95;;;;;;;4.30;55.38;101606.16;5047452;28;20033;-55
2022/03/11 04:31:37;;;;;;;16.92;7.65;;;;;;;4.32;55.71;101610.50;5047731;28;20523;-56
2022/03/11 04:34:03;;;;;;;15.52;8.85;;;;;;;4.27;55.79;101600.94;5046690;28;20071;-57
2022/03/11 04:36:31;;;;;;;14.85;8.38;;;;;;;4.29;55.46;101593.13;5046832;28;20029;-56
2022/03/11 04:38:56;;;;;;;18.92;8.70;;;;;;;4.26;56.27;101591.38;5047166;28;20025;-57
2022/03/11 04:41:22;;;;;;;16.58;8.82;;;;;;;4.28;55.56;101589.63;5046709;28;20043;-57
2022/03/11 04:43:47;;;;;;;13.35;8.48;;;;;;;4.26;55.70;101596.59;5046800;28;20021;-56
2022/03/11 04:46:12;;;;;;;16.08;8.77;;;;;;;4.25;55.59;101588.75;5044477;28;20025;-57
2022/03/11 04:48:39;;;;;;;17.73;8.52;;;;;;;4.28;55.51;101594.00;5046270;28;20155;-56
2022/03/11 04:51:05;;;;;;;13.80;8.10;;;;;;;4.24;55.79;101584.41;5047012;28;20518;-55
2022/03/11 04:53:30;;;;;;;18.63;8.73;;;;;;;4.23;55.80;101586.13;5046777;28;20040;-55
2022/03/11 04:55:55;;;;;;;16.83;9.00;;;;;;;4.21;55.74;101587.84;5046658;28;20437;-58
2022/03/11 04:58:20;;;;;;;13.60;8.43;;;;;;;4.24;55.71;101587.88;5046496;28;20410;-56
2022/03/11 05:00:46;;;;;;;22.02;8.05;;;;;;;4.20;55.57;101586.13;5046936;28;20497;-56
2022/03/11 05:03:11;;;;;;;15.57;8.70;;;;;;;4.23;55.95;101591.34;5027804;28;20142;-55
2022/03/11 05:05:37;;;;;;;18.27;8.70;;;;;;;4.21;55.58;101582.63;5046551;28;20151;-55
2022/03/11 05:08:02;;;;;;;13.77;8.23;;;;;;;4.18;55.55;101574.78;5046883;28;20025;-56
2022/03/11 05:10:27;;;;;;;14.20;8.32;;;;;;;4.15;55.74;101578.25;5046183;28;20380;-56
2022/03/11 05:12:53;;;;;;;17.73;8.70;;;;;;;4.15;55.67;101577.38;5045989;28;20021;-54
2022/03/11 05:15:19;;;;;;;13.73;8.32;;;;;;;4.16;55.80;101566.09;5046191;28;20029;-55
2022/03/11 05:17:45;;;;;;;13.88;8.10;;;;;;;4.17;55.73;101579.16;5045753;28;20025;-55
2022/03/11 05:20:11;;;;;;;14.82;8.25;;;;;;;4.16;55.63;101573.94;5045813;28;20029;-56
2022/03/11 05:22:36;;;;;;;12.27;7.95;;;;;;;4.16;55.61;101577.38;5046416;28;20037;-61
2022/03/11 05:25:02;;;;;;;17.25;8.80;;;;;;;4.11;56.12;101579.13;5046515;28;20418;-56
2022/03/11 05:27:27;;;;;;;14.55;8.23;;;;;;;4.16;55.47;101584.38;5041921;28;20033;-55
2022/03/11 05:29:53;;;;;;;18.90;9.30;;;;;;;4.16;55.36;101577.38;5043578;28;20502;-56
2022/03/11 05:32:20;;;;;;;18.50;7.63;;;;;;;4.12;55.50;101577.41;5045958;28;20021;-55
2022/03/11 05:34:46;;;;;;;16.38;8.43;;;;;;;4.09;55.55;101570.41;5044859;28;20021;-57
2022/03/11 05:37:11;;;;;;;15.65;8.50;;;;;;;4.09;55.75;101572.16;5039597;28;20029;-58
2022/03/11 05:39:36;;;;;;;16.05;7.53;;;;;;;4.10;55.27;101576.50;5043344;28;20367;-60
2022/03/11 05:42:02;;;;;;;12.38;6.90;;;;;;;4.10;55.58;101573.91;5044232;28;20052;-56
2022/03/11 05:44:28;;;;;;;17.05;7.80;;;;;;;4.10;55.04;101574.78;5041653;28;20403;-57
2022/03/11 05:46:53;;;;;;;14.13;7.80;;;;;;;4.10;55.59;101568.69;5038540;28;20075;-54
2022/03/11 05:49:19;;;;;;;13.85;8.52;;;;;;;4.10;55.70;101568.69;5043702;28;20060;-56
2022/03/11 05:51:45;;;;;;;12.52;7.90;;;;;;;4.13;55.40;101568.69;5031873;28;20452;-57
2022/03/11 05:54:10;;;;;;;13.10;8.18;;;;;;;4.11;55.60;101562.59;5039303;28;20117;-56
2022/03/11 05:56:37;;;;;;;10.98;7.38;;;;;;;4.09;55.62;101561.72;5038684;28;20645;-56
2022/03/11 05:59:03;;;;;;;12.52;7.45;;;;;;;4.06;55.71;101561.72;5039066;28;20029;-54
2022/03/11 06:01:28;;;;;;;13.63;8.55;;;;;;;4.08;55.62;101565.19;5040066;28;20075;-57
2022/03/11 06:03:54;;;;;;;14.18;7.90;;;;;;;4.10;55.65;101568.69;5022773;28;20048;-55
2022/03/11 06:06:19;;;;;;;16.95;8.02;;;;;;;4.12;55.46;101561.75;5033106;28;20113;-59
2022/03/11 06:08:44;;;;;;;14.52;7.57;;;;;;;4.15;55.51;101562.63;5037885;28;20412;-57
2022/03/11 06:11:10;;;;;;;15.57;8.38;;;;;;;4.19;54.54;101560.91;5043262;28;20029;-57
2022/03/11 06:13:36;;;;;;;13.35;8.20;;;;;;;4.21;55.02;101551.31;5028938;28;20515;-55
2022/03/11 06:16:02;;;;;;;13.70;8.07;;;;;;;4.25;54.74;101550.47;5008504;28;20029;-57
2022/03/11 06:18:28;;;;;;;16.92;8.00;;;;;;;4.24;55.06;101553.94;5023517;28;20030;-55
2022/03/11 06:20:53;;;;;;;16.52;8.60;;;;;;;4.28;54.81;101547.88;5032152;28;20099;-58
2022/03/11 06:23:18;;;;;;;16.00;8.23;;;;;;;4.28;54.88;101552.25;5045011;28;20025;-56
2022/03/11 06:25:44;;;;;;;14.60;7.68;;;;;;;4.34;54.75;101551.38;5044432;28;20055;-61
2022/03/11 06:28:09;;;;;;;15.15;8.35;;;;;;;4.38;54.96;101550.53;5040923;28;20380;-57
2022/03/11 06:30:34;;;;;;;18.88;7.97;;;;;;;4.40;54.38;101544.44;5034984;28;20025;-57
2022/03/11 06:33:00;;;;;;;17.13;7.65;;;;;;;4.40;54.73;101546.19;5034363;28;20079;-60
2022/03/11 06:35:25;;;;;;;14.15;7.90;;;;;;;4.45;54.41;101554.91;5048231;28;20025;-60
2022/03/11 06:37:51;;;;;;;12.48;8.10;;;;;;;4.45;54.74;101549.69;5047837;28;20029;-56
2022/03/11 06:40:17;;;;;;;14.77;7.10;;;;;;;4.41;54.71;101548.81;5048017;28;20142;-56
2022/03/11 06:42:44;;;;;;;15.18;8.10;;;;;;;4.41;54.44;101554.03;5045978;28;20021;-58
2022/03/11 06:45:11;;;;;;;16.77;7.47;;;;;;;4.46;54.53;101550.56;5043712;28;20035;-61
2022/03/11 06:47:36;;;;;;;11.50;7.20;;;;;;;4.55;53.99;101546.22;5025393;28;20112;-61
2022/03/11 06:50:03;;;;;;;15.43;7.35;;;;;;;4.58;54.66;101552.34;5035525;28;20037;-60
2022/03/11 06:52:28;;;;;;;16.70;7.50;;;;;;;4.57;54.25;101548.84;5030747;28;20209;-59
2022/03/11 06:54:53;;;;;;;12.13;7.38;;;;;;;4.63;54.13;101547.97;5043065;28;20112;-60
2022/03/11 06:57:20;;;;;;;12.52;7.57;;;;;;;4.65;54.32;101541.91;5043821;28;20028;-56
2022/03/11 06:59:46;;;;;;;17.40;7.50;;;;;;;4.67;54.12;101539.31;5043889;28;20033;-54
2022/03/11 07:02:12;;;;;;;18.10;10.07;;;;;;;4.77;53.56;101541.06;5031182;28;20072;-59
2022/03/11 07:04:37;;;;;;;15.10;8.05;;;;;;;4.86;53.50;101540.22;5033509;28;20091;-60
2022/03/11 07:07:03;;;;;;;12.60;7.57;;;;;;;4.90;53.65;101536.72;5042424;28;20472;-60
2022/03/11 07:09:28;;;;;;;14.90;8.00;;;;;;;4.91;53.70;101532.38;5040768;28;20094;-52
2022/03/11 07:11:57;;;;;;;16.73;8.05;;;;;;;4.89;53.62;101527.16;5035008;28;20013;-56
2022/03/11 07:14:23;;;;;;;20.35;7.57;;;;;;;4.95;53.24;101528.91;5044747;28;20222;-56
2022/03/11 07:16:52;;;;;;;14.27;8.15;;;;;;;5.05;53.45;101529.75;5063901;28;20035;-58
2022/03/11 07:19:17;;;;;;;12.00;6.72;;;;;;;5.14;53.14;101529.75;5034097;28;20021;-57
2022/03/11 07:21:43;;;;;;;11.90;7.32;;;;;;;5.22;52.75;101521.94;5046934;28;20511;-54
2022/03/11 07:24:08;;;;;;;16.23;8.20;;;;;;;5.24;53.21;101530.63;5051354;28;20049;-59
2022/03/11 07:26:33;;;;;;;14.88;7.35;;;;;;;5.30;53.16;101529.78;5048623;28;20029;-57
2022/03/11 07:28:59;;;;;;;13.65;7.20;;;;;;;5.37;53.05;101536.72;5037936;28;20386;-57
2022/03/11 07:31:24;;;;;;;12.93;7.10;;;;;;;5.40;52.47;101534.13;5041849;28;20044;-58
2022/03/11 07:33:49;;;;;;;15.68;7.65;;;;;;;5.48;52.69;101539.31;5022338;28;20047;-59
2022/03/11 07:36:14;;;;;;;14.40;7.93;;;;;;;5.55;52.67;101533.22;5036322;28;20499;-53
2022/03/11 07:38:40;;;;;;;14.80;8.13;;;;;;;5.54;52.29;101536.69;5036524;28;20029;-57
2022/03/11 07:41:07;;;;;;;15.02;7.45;;;;;;;5.60;52.25;101527.97;5036567;28;20028;-56
2022/03/11 07:43:32;;;;;;;14.30;7.70;;;;;;;5.63;52.20;101527.97;5024709;28;20059;-60
2022/03/11 07:45:58;;;;;;;14.23;8.00;;;;;;;5.72;52.35;101516.59;5040584;28;20020;-57
2022/03/11 07:48:23;;;;;;;18.40;8.18;;;;;;;5.73;51.92;101523.59;5035796;28;20371;-57
2022/03/11 07:50:48;;;;;;;16.05;8.20;;;;;;;5.82;52.29;101518.31;5038822;28;20112;-55
2022/03/11 07:53:14;;;;;;;19.05;8.43;;;;;;;5.91;52.02;101521.81;5041197;28;20029;-56
2022/03/11 07:55:39;;;;;;;15.25;8.63;;;;;;;6.00;52.25;101521.78;5017056;28;20411;-56
2022/03/11 07:58:05;;;;;;;16.13;7.55;;;;;;;6.04;51.70;101518.28;5015848;28;20554;-56
2022/03/11 08:00:30;;;;;;;22.33;7.07;;;;;;;6.23;51.17;101518.19;5015093;28;20510;-54
2022/03/11 08:02:55;;;;;;;13.75;7.82;;;;;;;6.30;51.53;101513.81;5039884;28;20355;-55
2022/03/11 08:05:21;;;;;;;21.00;7.80;;;;;;;6.31;51.71;101511.19;5039328;28;20692;-56
2022/03/11 08:07:48;;;;;;;15.90;8.82;;;;;;;6.37;51.30;101501.56;5017501;28;20079;-56
2022/03/11 08:10:14;;;;;;;12.52;7.35;;;;;;;6.51;51.40;101502.38;5017416;28;20037;-56
2022/03/11 08:12:39;;;;;;;20.92;8.35;;;;;;;6.56;50.84;101505.81;5018864;28;20302;-54
2022/03/11 08:15:06;;;;;;;12.38;7.85;;;;;;;6.67;50.84;101499.63;4999904;28;20564;-53
2022/03/11 08:17:31;;;;;;;17.30;8.38;;;;;;;6.79;50.65;101493.44;5017806;28;20076;-56
2022/03/11 08:19:56;;;;;;;20.65;10.35;;;;;;;6.88;50.72;101490.75;5017463;28;20045;-55
2022/03/11 08:22:22;;;;;;;20.33;8.07;;;;;;;6.95;50.52;101481.06;5019115;28;20036;-57
2022/03/11 08:24:47;;;;;;;15.02;7.80;;;;;;;7.02;50.57;101485.41;5023993;28;20132;-58
2022/03/11 08:27:15;;;;;;;22.35;7.60;;;;;;;7.13;50.23;101484.44;5016487;28;20369;-51
2022/03/11 08:29:40;;;;;;;14.60;7.70;;;;;;;7.10;49.69;101474.84;5016659;28;20033;-54
2022/03/11 08:32:06;;;;;;;17.17;7.63;;;;;;;7.23;49.65;101479.97;5017298;28;20021;-59
2022/03/11 08:34:32;;;;;;;19.55;7.78;;;;;;;7.27;50.16;101482.56;5018027;28;20460;-57
2022/03/11 08:36:57;;;;;;;14.13;7.80;;;;;;;7.36;49.89;101478.97;5000655;28;20090;-58
2022/03/11 08:39:22;;;;;;;16.52;8.02;;;;;;;7.46;49.59;101478.00;5027394;28;20035;-56
2022/03/11 08:41:48;;;;;;;16.95;9.05;;;;;;;7.54;49.60;101477.91;5022258;28;20430;-57
2022/03/11 08:44:13;;;;;;;18.98;8.50;;;;;;;7.61;49.52;101469.97;5022572;28;20083;-55
2022/03/11 08:46:38;;;;;;;15.07;8.18;;;;;;;7.72;49.49;101473.34;5021765;28;20491;-52
2022/03/11 08:49:06;;;;;;;18.73;8.55;;;;;;;7.71;49.87;101471.59;5026359;28;20036;-56
2022/03/11 08:51:32;;;;;;;16.27;7.90;;;;;;;7.80;48.96;101475.88;5024761;28;20027;-54
2022/03/11 08:53:57;;;;;;;18.30;8.55;;;;;;;7.88;48.88;101474.00;5025065;28;20259;-55
2022/03/11 08:56:23;;;;;;;22.05;8.30;;;;;;;7.99;49.01;101471.25;5021618;28;20083;-57
2022/03/11 08:58:49;;;;;;;18.63;8.48;;;;;;;8.05;48.70;101460.69;5026847;28;20025;-58
2022/03/11 09:01:15;;;;;;;18.05;8.05;;;;;;;8.05;48.27;101454.56;5038170;28;20021;-55
2022/03/11 09:03:40;;;;;;;15.30;8.20;;;;;;;8.16;48.57;101467.56;5038412;28;20033;-56
2022/03/11 09:06:06;;;;;;;17.92;8.57;;;;;;;8.31;48.85;101456.81;5036418;28;20024;-60
2022/03/11 09:08:31;;;;;;;17.75;8.60;;;;;;;8.30;48.05;101454.22;5038611;28;20479;-56
2022/03/11 09:10:56;;;;;;;17.25;8.18;;;;;;;8.30;48.08;101452.47;5038724;28;20025;-56
2022/03/11 09:13:21;;;;;;;14.55;8.13;;;;;;;8.38;48.54;101456.72;5037171;28;20025;-56
2022/03/11 09:15:47;;;;;;;15.85;9.18;;;;;;;8.50;48.64;101446.06;5042773;28;20102;-55
2022/03/11 09:18:12;;;;;;;14.95;9.43;;;;;;;8.58;47.73;101445.97;5042943;28;20021;-54
2022/03/11 09:20:39;;;;;;;15.73;8.23;;;;;;;8.72;47.65;101450.97;5045360;28;20463;-63
2022/03/11 09:23:04;;;;;;;16.27;8.63;;;;;;;8.75;47.42;101445.69;5045930;28;20033;-59
2022/03/11 09:25:30;;;;;;;15.70;7.90;;;;;;;8.86;47.46;101440.25;5037673;28;20047;-55
2022/03/11 09:27:55;;;;;;;27.60;9.88;;;;;;;8.72;47.27;101437.84;5046172;28;20033;-58
2022/03/11 09:30:20;;;;;;;16.83;9.27;;;;;;;8.92;47.42;101434.03;5044072;28;20113;-58
2022/03/11 09:32:46;;;;;;;26.30;8.65;;;;;;;8.96;47.06;101433.06;5034527;28;20509;-58
2022/03/11 09:35:12;;;;;;;16.80;7.90;;;;;;;9.01;46.83;101431.25;5038758;28;20021;-58
2022/03/11 09:37:38;;;;;;;17.20;8.27;;;;;;;9.14;47.14;101416.09;5045442;28;20133;-61
2022/03/11 09:40:04;;;;;;;16.38;7.60;;;;;;;9.27;46.48;101419.34;5045310;28;20413;-63
2022/03/11 09:42:29;;;;;;;17.77;8.27;;;;;;;9.16;46.74;101416.94;5044140;28;20032;-60
2022/03/11 09:44:56;;;;;;;17.08;8.75;;;;;;;9.34;47.43;101428.84;5044547;28;20036;-59
2022/03/11 09:47:22;;;;;;;14.85;8.23;;;;;;;9.43;46.66;101424.31;5056826;28;20064;-56
2022/03/11 09:49:48;;;;;;;18.92;7.75;;;;;;;9.52;46.74;101418.88;5065171;28;20032;-61
2022/03/11 09:52:15;;;;;;;15.13;8.77;;;;;;;9.64;46.76;101422.16;5047108;28;20083;-55
2022/03/11 09:54:40;;;;;;;20.63;9.35;;;;;;;9.58;46.60;101416.09;5030434;28;20014;-60
2022/03/11 09:57:05;;;;;;;13.00;8.18;;;;;;;9.75;47.03;101417.53;5035596;28;20021;-54
2022/03/11 09:59:31;;;;;;;16.55;8.93;;;;;;;9.80;46.64;101405.16;5045450;28;20051;-49
2022/03/11 10:01:57;;;;;;;14.95;9.00;;;;;;;9.71;46.70;101402.72;5047693;28;20507;-56
2022/03/11 10:04:23;;;;;;;14.98;8.52;;;;;;;9.79;46.51;101403.44;5045351;28;20078;-56
2022/03/11 10:06:48;;;;;;;19.23;9.57;;;;;;;10.00;46.78;101406.50;5044120;28;20472;-55
2022/03/11 10:09:17;;;;;;;16.77;8.98;;;;;;;10.02;46.46;101388.88;5044505;28;20119;-54
2022/03/11 10:11:42;;;;;;;15.40;8.50;;;;;;;10.04;46.49;101391.47;5045032;28;20490;-54
2022/03/11 10:14:08;;;;;;;13.70;7.70;;;;;;;10.11;46.64;101378.13;5044723;28;20009;-56
2022/03/11 10:16:35;;;;;;;14.75;8.80;;;;;;;10.20;46.65;101384.94;5045620;28;20032;-51
2022/03/11 10:19:03;;;;;;;16.38;8.95;;;;;;;10.24;46.49;101381.34;5043731;28;20370;-53
2022/03/11 10:21:35;;;;;;;16.70;8.57;;;;;;;10.40;47.15;101380.09;5044577;28;20029;-55
2022/03/11 10:24:03;;;;;;;19.13;9.65;;;;;;;10.39;46.26;101381.00;5044673;28;20036;-56
2022/03/11 10:26:33;;;;;;;16.77;8.98;;;;;;;10.56;46.56;101385.88;5045343;28;20041;-52
2022/03/11 10:28:59;;;;;;;22.30;9.15;;;;;;;10.67;46.17;101385.63;5045089;28;20037;-50
2022/03/11 10:31:32;;;;;;;21.90;8.38;;;;;;;10.79;46.07;101379.16;5044344;28;20033;-53
2022/03/11 10:34:27;;;;;;;20.52;9.40;;;;;;;10.74;46.28;101379.28;5026432;28;20060;-55
2022/03/11 10:36:56;;;;;;;14.27;8.48;;;;;;;10.90;45.98;101369.22;5045157;28;20059;-56
2022/03/11 10:39:41;;;;;;;16.23;8.85;;;;;;;10.83;46.49;101360.59;5044318;28;20025;-54
2022/03/11 10:42:12;;;;;;;18.98;9.55;;;;;;;10.82;46.66;101366.78;5044849;28;20128;-56
2022/03/11 10:44:57;;;;;;;18.13;8.88;;;;;;;10.92;46.54;101353.31;5044927;28;20064;-56
2022/03/11 10:47:25;;;;;;;13.52;8.65;;;;;;;11.00;46.13;101351.38;5043977;28;20059;-55
2022/03/11 10:49:56;;;;;;;17.45;8.40;;;;;;;11.10;46.06;101352.84;5044842;28;20499;-58
2022/03/11 10:52:42;;;;;;;18.27;8.50;;;;;;;11.21;45.85;101356.94;5044837;28;20025;-59
2022/03/11 10:55:19;;;;;;;12.70;7.90;;;;;;;11.26;46.10;101357.69;5028391;28;20055;-56
2022/03/11 10:57:46;;;;;;;14.57;8.57;;;;;;;11.44;45.93;101347.50;5049320;28;20416;-54
2022/03/11 11:00:22;;;;;;;15.20;8.75;;;;;;;11.34;45.92;101342.50;5030579;28;20017;-55
2022/03/11 11:02:52;;;;;;;14.82;9.30;;;;;;;11.48;46.08;101349.16;5047690;28;20560;-55
2022/03/11 11:05:18;;;;;;;19.85;9.68;;;;;;;11.63;45.66;101343.38;5048603;28;20079;-54
2022/03/11 11:07:44;;;;;;;21.95;9.10;;;;;;;11.81;45.72;101341.13;5048836;28;20033;-55
2022/03/11 11:10:12;;;;;;;19.95;9.23;;;;;;;11.92;45.92;101334.63;5047729;28;20036;-53
2022/03/11 11:12:39;;;;;;;16.90;10.25;;;;;;;11.72;45.65;101331.72;5048628;28;20063;-55
2022/03/11 11:15:05;;;;;;;16.63;9.55;;;;;;;11.79;45.42;101335.00;5047566;28;20055;-53
2022/03/11 11:17:30;;;;;;;14.93;8.93;;;;;;;12.05;44.96;101327.19;5041972;28;20026;-56
2022/03/11 11:20:00;;;;;;;18.27;8.82;;;;;;;12.23;45.14;101329.25;5037202;28;20297;-53